• Join FlightAware (Why Join?)
  • Login
  • US Flag 
11:57PM EDT


 

Airport Tracker/Info


-or-


 

Live Flight TrackerFlight Track Log ✈ CEB405 ✈ 20-Oct-2013 ✈ RPLI / LAO - RPLL / MNL

Flight Track Log - Related Links

Times and Time Zones

All times are in EDT time to prevent confusion due to time zone crossing. See the CEB405 flight status page for this flight to view local times or setup timezone preferences in your user account.

Time Position Orientation Groundspeed Altitude Reporting Facility
EDT Latitude Longitude Course Direction KTS MPH feet Rate Location/Type
08:35AM 17.4950 120.4480 186° South 403 464 21,200  Level FlightAware
08:35AM 17.4290 120.4410 186° South 411 473 22,200 780 Climbing FlightAware
08:36AM 17.3700 120.4340 186° South 411 473 22,200 2,520 Level FlightAware
08:37AM 17.2940 120.4250 186° South 400 460 25,200 3,600 Climbing FlightAware
08:37AM 17.2350 120.4180 186° South 402 463 26,200 1,980 Climbing FlightAware
08:38AM 17.1680 120.4100 187° South 399 459 27,500 2,040 Climbing FlightAware
08:38AM 17.1040 120.4020 187° South 399 459 28,600 1,320 Climbing FlightAware
08:39AM 17.0440 120.3950 186° South 394 453 29,000 300 Climbing FlightAware
08:39AM 16.9720 120.3870 186° South 392 451 29,000  Level FlightAware
08:40AM 16.9080 120.3800 186° South 392 451 29,000  Level FlightAware
08:41AM 16.8350 120.3710 187° South 392 451 29,000  Level FlightAware
08:41AM 16.7690 120.3630 187° South 394 453 29,000  Level FlightAware
08:42AM 16.6940 120.3630 180° South 393 452 29,000  Level FlightAware
08:43AM 16.6170 120.3730 173° South 395 455 29,000  Level FlightAware
08:43AM 16.5480 120.3820 173° South 395 455 29,000  Level FlightAware
08:44AM 16.4970 120.3890 173° South 395 455 29,000  Level FlightAware
08:44AM 16.4230 120.3990 173° South 396 456 29,000  Level FlightAware
08:45AM 16.3580 120.4070 173° South 395 455 29,000  Level FlightAware
08:46AM 16.3030 120.4140 173° South 394 453 29,000  Level FlightAware
08:46AM 16.2390 120.4230 172° South 394 453 29,000  Level FlightAware
08:47AM 16.1780 120.4320 172° South 394 453 29,000  Level FlightAware
08:48AM 16.1210 120.4410 171° South 394 453 29,000  Level FlightAware
08:48AM 16.0660 120.4490 172° South 394 453 29,000  Level FlightAware
08:49AM 16.0110 120.4570 172° South 394 453 29,000 -3,720 Level FlightAware
08:49AM 15.8930 120.4680 175° South 392 451 24,600 -4,740 Descending FlightAware
08:50AM 15.8350 120.4760 172° South 389 448 23,500 -2,040 Descending FlightAware
08:51AM 15.7660 120.4850 173° South 385 443 22,200 -2,040 Descending FlightAware
08:51AM 15.7060 120.4930 173° South 382 440 21,100 -1,980 Descending FlightAware
08:52AM 15.6390 120.5020 173° South 378 435 19,900 -1,860 Descending FlightAware
08:52AM 15.5810 120.5090 173° South 376 433 18,900 -1,800 Descending FlightAware
08:53AM 15.5210 120.5170 173° South 373 429 17,900 -1,680 Descending FlightAware
08:53AM 15.4590 120.5250 173° South 371 427 17,000 -600 Descending FlightAware
08:54AM 15.3740 120.5370 172° South 370 426 17,000  Level FlightAware
08:55AM 15.3220 120.5440 173° South 370 426 17,000 -420 Level FlightAware
08:56AM 15.2450 120.5530 174° South 368 423 16,500 -840 Descending FlightAware
08:56AM 15.1830 120.5650 169° South 362 417 16,000 -660 Descending FlightAware
08:56AM 15.1660 120.5740 153° Southeast 349 402 16,000  Level FlightAware
08:57AM 15.1170 120.6080 146° Southeast 320 368 16,000 -300 Level FlightAware
08:58AM 15.0810 120.6330 146° Southeast 305 351 15,700 -960 Descending FlightAware
08:58AM 15.0350 120.6640 147° Southeast 302 348 14,900 -1,320 Descending FlightAware
08:59AM 14.9940 120.6920 147° Southeast 301 346 14,100 -840 Descending FlightAware
08:59AM 14.9560 120.7180 147° Southeast 299 344 14,000 -660 Descending FlightAware
09:00AM 14.9180 120.7430 148° Southeast 296 341 13,400 -1,620 Descending FlightAware
09:01AM 14.8730 120.7740 146° Southeast 308 354 12,100 -1,860 Descending FlightAware
09:01AM 14.8280 120.8020 149° Southeast 309 356 11,100 -1,680 Descending FlightAware
09:01AM 14.8130 120.8030 176° South 309 356 10,800 -1,320 Descending FlightAware
09:02AM 14.7620 120.7960 188° South 298 343 10,100 -1,380 Descending FlightAware
09:02AM 14.7310 120.7910 189° South 295 339 9,500 -1,200 Descending FlightAware
09:03AM 14.7050 120.7870 188° South 277 319 9,300 -720 Descending FlightAware
09:03AM 14.6760 120.7820 189° South 257 296 9,000 -720 Descending FlightAware
09:03AM 14.6550 120.7790 188° South 244 281 8,800 -780 Descending FlightAware
09:04AM 14.6320 120.7750 190° South 224 258 8,500 -780 Descending FlightAware
09:04AM 14.6140 120.7730 186° South 213 245 8,300 -1,200 Descending FlightAware
09:04AM 14.5920 120.7700 188° South 213 245 7,700 -1,560 Descending FlightAware
09:05AM 14.5630 120.7690 182° South 218 251 7,000 -1,440 Descending FlightAware
09:05AM 14.5430 120.7650 191° South 215 247 6,500 -1,560 Descending FlightAware
09:06AM 14.5210 120.7620 188° South 212 244 5,900 -1,740 Descending FlightAware
09:06AM 14.5040 120.7580 193° South 211 243 5,400 -720 Descending FlightAware
09:06AM 14.4830 120.7560 185° South 211 243 5,400 -1,320 Level FlightAware
09:07AM 14.4370 120.7910 144° Southeast 196 226 3,700 -1,620 Descending FlightAware
09:08AM 14.4200 120.8010 150° Southeast 183 211 3,400 -780 Descending FlightAware
09:08AM 14.4140 120.8050 147° Southeast 178 205 3,300 -420 Descending FlightAware
09:08AM 14.4110 120.8090 128° Southeast 173 199 3,300 -600 Level FlightAware
09:08AM 14.4070 120.8200 111° Southeast 166 191 3,100 -660 Descending FlightAware
09:08AM 14.4070 120.8230 90° East 163 188 3,100 -240 Level FlightAware
09:08AM 14.4090 120.8400 83° East 161 185 3,000 -420 Descending FlightAware
09:09AM 14.4120 120.8460 63° Northeast 161 185 2,900 -240 Descending FlightAware
09:09AM 14.4190 120.8580 59° Northeast 159 183 2,900 -180 Level FlightAware
09:09AM 14.4270 120.8730 61° Northeast 158 182 2,800 -540 Descending FlightAware
09:10AM 14.4360 120.8880 58° Northeast 156 180 2,500 -840 Descending FlightAware
09:10AM 14.4430 120.9010 61° Northeast 153 176 2,200 -780 Descending FlightAware
09:10AM 14.4490 120.9130 63° Northeast 145 167 2,000 -780 Descending FlightAware
09:11AM 14.4540 120.9210 57° Northeast 140 161 1,800 -720 Descending FlightAware
09:11AM 14.4630 120.9370 60° Northeast 123 142 1,500 -600 Descending FlightAware
09:12AM 14.4720 120.9540 61° Northeast 121 139 1,100 -660 Descending FlightAware
09:12AM 14.4790 120.9660 59° Northeast 121 139 900 -720 Descending FlightAware
09:12AM 14.4840 120.9760 63° Northeast 121 139 700 -600 Descending FlightAware
09:13AM 14.4890 120.9850 60° Northeast 121 139 500 -660 Descending FlightAware
09:13AM 14.4960 120.9960 57° Northeast 125 144 300 -360 Descending FlightAware
09:14AM 14.5040 121.0120 63° Northeast 125 144 200 -180 Descending FlightAware
09:16AM 14.5086 121.0196 58° Northeast  Level Estimated
09:17AM 14.5086 121.0196 162° South  Level Estimated
09:18AM 14.5086 121.0196 162° South  Level Estimated
09:19AM 14.5086 121.0196 162° South  Level Estimated
09:20AM 14.5086 121.0196 162° South  Level Estimated
09:21AM 14.5086 121.0196 162° South  Level Estimated
09:22AM 14.5086 121.0196 162° South  Level Estimated
09:23AM 14.5086 121.0196 162° South  Level Estimated
09:24AM 14.5086 121.0196 162° South  Level Estimated
09:25AM 14.5086 121.0196 162° South  Level Estimated
09:26AM 14.5086 121.0196 162° South  Level Estimated
09:27AM 14.5086 121.0196 162° South  Level Estimated
09:28AM 14.5086 121.0196 162° South  Level Estimated
09:29AM 14.5086 121.0196 162° South  Level Estimated
09:30AM 14.5086 121.0196 162° South  Level Estimated
09:31AM 14.5086 121.0196 162° South  Level Estimated
09:32AM 14.5086 121.0196 162° South  Level Estimated
09:33AM 14.5086 121.0196 162° South  Level Estimated
09:34AM 14.5086 121.0196 162° South  Level Estimated
09:35AM 14.5086 121.0196 162° South  Level Estimated
09:36AM 14.5086 121.0196 162° South  Level Estimated
09:37AM 14.5086 121.0196 162° South  Level Estimated
09:38AM 14.5086 121.0196 162° South  Level Estimated
09:39AM 14.5086 121.0196 162° South  Level Estimated
09:40AM 14.5086 121.0196 162° South  Level Estimated
09:41AM 14.5086 121.0196 162° South  Level Estimated
09:42AM 14.5086 121.0196 162° South  Level Estimated
09:43AM 14.5086 121.0196 162° South  Level Estimated
09:44AM 14.5086 121.0196 162° South  Level Estimated
09:45AM 14.5086 121.0196 162° South  Level Estimated
09:46AM 14.5086 121.0196 162° South  Level Estimated
09:47AM 14.5086 121.0196 162° South  Level Estimated
09:48AM 14.5086 121.0196 162° South  Level Estimated
09:49AM 14.5086 121.0196 162° South  Level Estimated
09:50AM 14.5086 121.0196 162° South  Level Estimated
09:51AM 14.5086 121.0196 162° South  Level Estimated